createdAt,value
2022-09-06T00:01:52.449Z,1.50
2022-09-06T00:04:33.162Z,1.70
2022-09-06T00:07:13.600Z,1.70
2022-09-06T00:10:43.290Z,1.40
2022-09-06T00:13:44.228Z,1.80
2022-09-06T00:16:35.758Z,1.50
2022-09-06T00:19:07.402Z,1.90
2022-09-06T00:22:16.663Z,1.50
2022-09-06T00:25:38.061Z,1.50
2022-09-06T00:28:48.189Z,1.80
2022-09-06T00:31:35.542Z,1.70
2022-09-06T00:34:34.335Z,2.00
2022-09-06T00:37:41.288Z,1.40
2022-09-06T00:40:53.217Z,1.30
2022-09-06T00:43:34.525Z,1.50
2022-09-06T00:46:51.387Z,1.20
2022-09-06T00:50:05.432Z,1.20
2022-09-06T00:53:08.693Z,1.10
2022-09-06T00:55:45.853Z,1.10
2022-09-06T00:58:47.452Z,1.10
2022-09-06T01:01:39.395Z,1.60
2022-09-06T01:04:29.100Z,1.80
2022-09-06T01:08:08.318Z,1.90
2022-09-06T01:10:57.659Z,1.60
2022-09-06T01:14:21.804Z,2.00
2022-09-06T01:17:56.956Z,1.80
2022-09-06T01:24:04.831Z,1.50
2022-09-06T01:27:10.424Z,1.50
2022-09-06T01:33:14.246Z,1.90
2022-09-06T01:37:06.219Z,1.50
2022-09-06T01:40:30.709Z,1.40
2022-09-06T01:43:14.239Z,1.40
2022-09-06T01:46:18.042Z,1.40
2022-09-06T01:49:23.606Z,1.40
2022-09-06T01:52:36.835Z,1.40
2022-09-06T01:55:55.715Z,1.30
2022-09-06T01:58:53.025Z,1.60
2022-09-06T02:01:47.391Z,1.60
2022-09-06T02:04:47.230Z,1.40
2022-09-06T02:08:01.922Z,1.40
2022-09-06T02:11:10.895Z,1.20
2022-09-06T02:13:59.630Z,1.10
2022-09-06T02:17:03.686Z,1.30
2022-09-06T02:20:07.679Z,1.20
2022-09-06T02:23:06.821Z,0.90
2022-09-06T02:26:03.858Z,0.80
2022-09-06T02:29:11.589Z,0.90
2022-09-06T02:32:00.105Z,0.90
2022-09-06T02:34:48.176Z,1.00
2022-09-06T02:37:43.618Z,0.90
2022-09-06T02:41:13.073Z,0.80
2022-09-06T02:44:02.062Z,0.90
2022-09-06T02:46:45.363Z,0.90
2022-09-06T02:49:32.685Z,0.80
2022-09-06T02:52:23.055Z,0.80
2022-09-06T02:54:55.424Z,1.00
2022-09-06T02:57:42.778Z,0.90
2022-09-06T03:03:13.940Z,0.80
2022-09-06T03:06:03.924Z,0.80
2022-09-06T03:08:55.855Z,1.00
2022-09-06T03:11:25.121Z,1.00
2022-09-06T03:14:12.888Z,0.90
2022-09-06T03:16:54.916Z,0.70
2022-09-06T03:19:27.031Z,0.90
2022-09-06T03:22:39.638Z,0.80
2022-09-06T03:25:16.436Z,0.60
2022-09-06T03:28:15.541Z,0.90
2022-09-06T03:30:53.700Z,0.60
2022-09-06T03:33:51.586Z,0.60
2022-09-06T03:36:35.770Z,0.70
2022-09-06T03:39:15.996Z,0.90
2022-09-06T03:42:28.784Z,1.10
2022-09-06T03:45:32.038Z,0.90
2022-09-06T03:48:11.404Z,1.20
2022-09-06T03:51:03.475Z,1.70
2022-09-06T03:54:24.518Z,1.60
2022-09-06T03:57:14.648Z,1.30
2022-09-06T04:00:27.431Z,1.20
2022-09-06T04:06:27.400Z,1.10
2022-09-06T04:09:59.309Z,1.10
2022-09-06T04:12:39.846Z,1.10
2022-09-06T04:16:09.350Z,1.60
2022-09-06T04:18:49.878Z,1.70
2022-09-06T04:21:22.324Z,1.60
2022-09-06T04:24:43.279Z,1.30
2022-09-06T04:27:35.398Z,1.40
2022-09-06T04:30:33.043Z,1.10
2022-09-06T04:33:50.522Z,1.20
2022-09-06T04:36:33.130Z,1.30
2022-09-06T04:39:18.053Z,1.30
2022-09-06T04:42:09.525Z,1.30
2022-09-06T04:45:21.575Z,1.40
2022-09-06T04:48:05.491Z,1.00
2022-09-06T04:51:03.303Z,1.80
2022-09-06T04:53:41.000Z,1.60
2022-09-06T04:56:42.782Z,1.60
2022-09-06T04:59:58.202Z,1.30
2022-09-06T05:03:14.445Z,1.20
2022-09-06T05:06:14.255Z,1.30
2022-09-06T05:08:49.364Z,1.00
2022-09-06T05:11:21.270Z,1.80
2022-09-06T05:14:15.954Z,1.90
2022-09-06T05:17:15.671Z,1.20
2022-09-06T05:20:14.726Z,1.20
2022-09-06T05:22:54.438Z,1.00
2022-09-06T05:25:31.591Z,1.00
2022-09-06T05:28:08.716Z,0.80
2022-09-06T05:30:51.346Z,1.00
2022-09-06T05:33:30.980Z,1.10
2022-09-06T05:36:23.884Z,0.70
2022-09-06T05:39:22.092Z,1.00
2022-09-06T05:42:21.740Z,0.80
2022-09-06T05:45:02.534Z,2.00
2022-09-06T05:48:00.105Z,0.70
2022-09-06T05:50:46.925Z,0.60
2022-09-06T05:53:58.780Z,0.60
2022-09-06T05:56:38.766Z,0.80
2022-09-06T05:59:10.574Z,0.80
2022-09-06T06:01:58.598Z,0.80
2022-09-06T06:05:01.862Z,0.90
2022-09-06T06:07:30.445Z,0.90
2022-09-06T06:10:09.452Z,1.40
2022-09-06T06:13:01.199Z,0.90
2022-09-06T06:15:44.792Z,1.20
2022-09-06T06:18:24.034Z,1.10
2022-09-06T06:21:44.975Z,1.60
2022-09-06T06:24:39.720Z,1.00
2022-09-06T06:27:23.734Z,1.20
2022-09-06T06:30:09.707Z,1.30
2022-09-06T06:33:03.276Z,1.40
2022-09-06T06:36:05.241Z,1.40
2022-09-06T06:39:17.348Z,1.20
2022-09-06T06:41:51.054Z,1.10
2022-09-06T06:44:39.348Z,1.70
2022-09-06T06:47:11.788Z,1.20
2022-09-06T06:49:52.595Z,1.40
2022-09-06T06:52:24.565Z,1.20
2022-09-06T06:55:01.376Z,1.40
2022-09-06T06:57:44.735Z,1.10
2022-09-06T07:00:39.182Z,1.00
2022-09-06T07:03:32.662Z,0.80
2022-09-06T07:06:16.405Z,0.70
2022-09-06T07:08:46.622Z,0.70
2022-09-06T07:11:19.478Z,0.60
2022-09-06T07:13:50.549Z,0.60
2022-09-06T07:16:22.588Z,0.60
2022-09-06T07:18:53.047Z,0.70
2022-09-06T07:24:10.315Z,0.70
2022-09-06T07:26:40.325Z,0.50
2022-09-06T07:29:12.153Z,0.60
2022-09-06T07:34:33.898Z,0.50
2022-09-06T07:37:02.806Z,0.40
2022-09-06T07:39:33.306Z,0.60
2022-09-06T07:42:04.997Z,0.50
2022-09-06T07:44:33.800Z,0.40
2022-09-06T07:55:35.874Z,0.50
2022-09-06T07:58:04.978Z,0.40
2022-09-06T08:00:33.980Z,0.50
2022-09-06T08:03:07.571Z,0.70
2022-09-06T08:11:15.612Z,0.40
2022-09-06T08:13:45.014Z,0.80
2022-09-06T08:16:15.743Z,0.60
2022-09-06T08:18:47.814Z,0.50
2022-09-06T08:21:17.015Z,0.50
2022-09-06T08:23:49.820Z,0.40
2022-09-06T08:26:23.695Z,0.80
2022-09-06T08:29:03.005Z,0.40
2022-09-06T08:31:33.338Z,0.30
2022-09-06T08:34:02.939Z,0.60
2022-09-06T08:36:32.460Z,0.90
2022-09-06T08:39:06.468Z,0.50
2022-09-06T08:42:04.150Z,1.00
2022-09-06T08:44:57.639Z,0.70
2022-09-06T08:47:27.565Z,0.60
2022-09-06T08:50:02.556Z,0.40
2022-09-06T08:53:16.338Z,0.80
2022-09-06T08:55:55.081Z,0.60
2022-09-06T08:58:46.019Z,0.80
2022-09-06T09:01:27.733Z,0.40
2022-09-06T09:04:03.304Z,0.50
2022-09-06T09:06:32.982Z,0.80
2022-09-06T09:09:06.649Z,0.60
2022-09-06T09:11:36.542Z,0.30
2022-09-06T09:14:05.390Z,0.30
2022-09-06T09:16:35.106Z,0.30
2022-09-06T09:19:05.766Z,0.50
2022-09-06T09:21:40.745Z,0.60
2022-09-06T09:24:12.315Z,0.60
2022-09-06T09:26:57.872Z,0.30
2022-09-06T09:29:29.517Z,0.30
2022-09-06T09:32:00.204Z,0.40
2022-09-06T09:34:34.765Z,0.80
2022-09-06T09:40:28.711Z,0.50
2022-09-06T09:43:29.884Z,0.40
2022-09-06T09:46:16.768Z,0.60
2022-09-06T09:49:01.328Z,0.70
2022-09-06T09:51:32.801Z,0.30
2022-09-06T09:54:04.812Z,0.50
2022-09-06T09:56:52.998Z,0.40
2022-09-06T09:59:26.145Z,0.50
2022-09-06T10:02:01.719Z,0.40
2022-09-06T10:04:43.218Z,0.30
2022-09-06T10:07:18.476Z,0.50
2022-09-06T10:09:59.726Z,0.40
2022-09-06T10:12:33.489Z,0.20
2022-09-06T10:15:06.910Z,0.50
2022-09-06T10:17:50.192Z,0.40
2022-09-06T10:20:33.893Z,0.60
2022-09-06T10:23:12.613Z,0.60
2022-09-06T10:25:55.930Z,0.40
2022-09-06T10:28:44.414Z,0.30
2022-09-06T10:31:42.457Z,0.30
2022-09-06T10:34:35.883Z,0.30
2022-09-06T10:37:10.741Z,0.20
2022-09-06T10:40:07.165Z,0.20
2022-09-06T10:42:50.437Z,0.20
2022-09-06T10:45:24.847Z,0.30
2022-09-06T10:48:03.018Z,0.20
2022-09-06T10:50:46.511Z,0.30
2022-09-06T10:53:20.802Z,0.40
2022-09-06T10:56:01.845Z,0.30
2022-09-06T11:01:42.171Z,0.40
2022-09-06T11:06:53.773Z,0.30
2022-09-06T11:09:33.019Z,0.30
2022-09-06T11:12:22.877Z,1.50
2022-09-06T11:14:52.420Z,0.70
2022-09-06T11:17:41.651Z,0.80
2022-09-06T11:20:35.145Z,0.70
2022-09-06T11:23:37.733Z,0.40
2022-09-06T11:26:55.543Z,0.20
2022-09-06T11:29:27.527Z,0.30
2022-09-06T11:34:57.026Z,0.20
2022-09-06T11:37:36.932Z,0.30
2022-09-06T11:40:32.118Z,0.30
2022-09-06T11:43:01.482Z,0.30
2022-09-06T11:45:53.003Z,0.20
2022-09-06T11:48:24.790Z,0.20
2022-09-06T11:50:59.214Z,0.30
2022-09-06T11:53:34.435Z,0.30
2022-09-06T11:56:03.345Z,0.30
2022-09-06T11:58:38.014Z,0.70
2022-09-06T12:01:12.968Z,0.90
2022-09-06T12:04:10.253Z,0.40
2022-09-06T12:07:12.497Z,0.60
2022-09-06T12:09:43.059Z,0.20
2022-09-06T12:12:16.778Z,0.20
2022-09-06T12:14:49.511Z,0.20
2022-09-06T12:17:20.478Z,0.30
2022-09-06T12:19:52.092Z,0.20
2022-09-06T12:22:29.708Z,0.50
2022-09-06T12:25:35.214Z,0.30
2022-09-06T12:28:23.784Z,0.20
2022-09-06T12:30:53.719Z,0.50
2022-09-06T12:33:39.027Z,0.50
2022-09-06T12:36:29.886Z,0.70
2022-09-06T12:39:16.502Z,0.60
2022-09-06T12:41:50.682Z,0.10
2022-09-06T12:44:28.315Z,0.20
2022-09-06T12:47:03.417Z,0.40
2022-09-06T12:49:32.340Z,0.50
2022-09-06T12:52:27.401Z,0.20
2022-09-06T12:54:56.078Z,0.20
2022-09-06T12:57:26.611Z,0.90
2022-09-06T12:59:58.625Z,0.20
2022-09-06T13:02:43.110Z,0.50
2022-09-06T13:05:13.632Z,0.30
2022-09-06T13:07:49.222Z,0.30
2022-09-06T13:10:22.525Z,0.20
2022-09-06T13:12:53.208Z,0.30
2022-09-06T13:15:31.567Z,0.30
2022-09-06T13:18:22.702Z,0.20
2022-09-06T13:21:00.426Z,0.20
2022-09-06T13:23:31.120Z,0.30
2022-09-06T13:25:59.881Z,0.60
2022-09-06T13:28:30.093Z,0.20
2022-09-06T13:31:18.531Z,0.20
2022-09-06T13:33:57.398Z,0.30
2022-09-06T13:36:32.910Z,0.30
2022-09-06T13:39:04.140Z,0.20
2022-09-06T13:41:37.606Z,0.30
2022-09-06T13:44:18.682Z,0.20
2022-09-06T13:46:47.512Z,0.40
2022-09-06T13:49:16.157Z,1.40
2022-09-06T13:51:44.842Z,0.80
2022-09-06T13:54:14.616Z,0.70
2022-09-06T13:56:46.253Z,0.80
2022-09-06T13:59:15.319Z,1.20
2022-09-06T14:01:47.382Z,0.60
2022-09-06T14:04:21.490Z,0.60
2022-09-06T14:06:50.160Z,0.40
2022-09-06T14:09:19.271Z,0.90
2022-09-06T14:11:48.480Z,0.50
2022-09-06T14:14:18.730Z,0.30
2022-09-06T14:16:48.024Z,0.40
2022-09-06T14:19:17.283Z,0.40
2022-09-06T14:21:46.147Z,0.20
2022-09-06T14:24:14.990Z,0.40
2022-09-06T14:26:43.339Z,0.30
2022-09-06T14:29:12.024Z,0.60
2022-09-06T14:31:41.021Z,0.40
2022-09-06T14:34:09.704Z,0.30
2022-09-06T14:36:38.723Z,0.30
2022-09-06T14:39:07.274Z,0.30
2022-09-06T14:41:35.658Z,0.30
2022-09-06T14:44:04.651Z,0.30
2022-09-06T14:46:33.273Z,0.30
2022-09-06T14:49:06.371Z,0.50
2022-09-06T14:51:37.110Z,0.30
2022-09-06T14:54:13.920Z,0.40
2022-09-06T14:56:43.988Z,0.40
2022-09-06T14:59:13.458Z,0.40
2022-09-06T15:01:42.428Z,0.30
2022-09-06T15:04:14.717Z,0.40
2022-09-06T15:06:47.358Z,0.30
2022-09-06T15:09:17.555Z,0.40
2022-09-06T15:11:51.478Z,0.30
2022-09-06T15:14:30.046Z,0.30
2022-09-06T15:17:00.343Z,0.30
2022-09-06T15:19:30.283Z,0.70
2022-09-06T15:21:59.148Z,0.40
2022-09-06T15:24:28.896Z,0.40
2022-09-06T15:26:58.039Z,0.40
2022-09-06T15:29:27.606Z,0.30
2022-09-06T15:31:57.531Z,0.40
2022-09-06T15:34:26.907Z,0.30
2022-09-06T15:36:56.926Z,0.40
2022-09-06T15:39:26.028Z,0.30
2022-09-06T15:41:58.700Z,0.40
2022-09-06T15:44:27.778Z,0.40
2022-09-06T15:47:07.256Z,0.40
2022-09-06T15:49:37.439Z,0.50
2022-09-06T15:52:07.696Z,0.50
2022-09-06T15:54:57.530Z,0.50
2022-09-06T15:57:35.489Z,0.50
2022-09-06T16:00:05.477Z,0.40
2022-09-06T16:02:34.457Z,0.40
2022-09-06T16:05:08.917Z,0.40
2022-09-06T16:07:41.263Z,0.60
2022-09-06T16:10:20.598Z,0.50
2022-09-06T16:12:52.107Z,0.60
2022-09-06T16:15:26.575Z,0.60
2022-09-06T16:18:05.702Z,0.40
2022-09-06T16:20:38.215Z,0.50
2022-09-06T16:23:09.429Z,0.40
2022-09-06T16:25:38.546Z,0.50
2022-09-06T16:28:07.189Z,0.50
2022-09-06T16:30:41.083Z,0.40
2022-09-06T16:33:13.838Z,1.10
2022-09-06T16:35:43.404Z,1.60
2022-09-06T16:38:15.155Z,0.50
2022-09-06T16:40:46.396Z,0.40
2022-09-06T16:46:05.497Z,0.70
2022-09-06T16:48:38.272Z,0.60
2022-09-06T16:51:15.942Z,0.50
2022-09-06T16:53:47.557Z,0.70
2022-09-06T16:56:18.532Z,0.70
2022-09-06T16:58:56.458Z,0.70
2022-09-06T17:01:27.234Z,0.60
2022-09-06T17:03:56.221Z,0.40
2022-09-06T17:06:25.177Z,0.60
2022-09-06T17:08:58.730Z,0.60
2022-09-06T17:11:29.311Z,0.60
2022-09-06T17:13:58.302Z,0.60
2022-09-06T17:16:45.383Z,0.60
2022-09-06T17:19:14.820Z,0.60
2022-09-06T17:21:46.761Z,0.80
2022-09-06T17:26:44.256Z,0.50
2022-09-06T17:29:13.156Z,0.60
2022-09-06T17:31:42.009Z,0.60
2022-09-06T17:34:11.769Z,0.50
2022-09-06T17:36:42.994Z,0.70
2022-09-06T17:39:21.407Z,0.70
2022-09-06T17:41:56.283Z,0.80
2022-09-06T17:44:26.971Z,0.90
2022-09-06T17:47:14.373Z,0.80
2022-09-06T17:49:44.110Z,0.70
2022-09-06T17:52:14.020Z,0.80
2022-09-06T17:54:44.842Z,0.80
2022-09-06T17:57:14.025Z,0.90
2022-09-06T17:59:43.149Z,0.70
2022-09-06T18:02:12.147Z,0.90
2022-09-06T18:04:41.143Z,0.80
2022-09-06T18:07:10.047Z,0.80
2022-09-06T18:09:40.610Z,0.80
2022-09-06T18:12:09.753Z,0.80
2022-09-06T18:14:38.643Z,0.90
2022-09-06T18:17:09.304Z,0.80
2022-09-06T18:19:38.679Z,0.90
2022-09-06T18:22:07.891Z,1.10
2022-09-06T18:24:39.122Z,0.90
2022-09-06T18:27:14.462Z,1.00
2022-09-06T18:29:48.574Z,1.00
2022-09-06T18:32:17.875Z,0.90
2022-09-06T18:34:52.298Z,0.90
2022-09-06T18:37:21.948Z,0.80
2022-09-06T18:39:51.060Z,0.80
2022-09-06T18:42:22.243Z,0.70
2022-09-06T18:44:51.750Z,1.10
2022-09-06T18:47:23.917Z,0.90
2022-09-06T18:50:22.337Z,0.70
2022-09-06T18:52:51.847Z,0.90
2022-09-06T18:55:26.326Z,0.80
2022-09-06T18:58:00.892Z,0.70
2022-09-06T19:00:38.737Z,0.90
2022-09-06T19:03:15.482Z,0.90
2022-09-06T19:05:47.980Z,0.80
2022-09-06T19:08:17.610Z,1.00
2022-09-06T19:10:47.111Z,0.80
2022-09-06T19:13:19.406Z,0.70
2022-09-06T19:16:17.188Z,1.00
2022-09-06T19:18:50.131Z,0.90
2022-09-06T19:21:25.053Z,1.00
2022-09-06T19:26:38.524Z,0.90
2022-09-06T19:29:39.974Z,1.10
2022-09-06T19:32:29.008Z,1.00
2022-09-06T19:35:50.987Z,1.60
2022-09-06T19:39:03.154Z,0.70
2022-09-06T19:42:06.163Z,0.90
2022-09-06T19:45:16.633Z,1.10
2022-09-06T19:48:58.752Z,0.80
2022-09-06T19:51:37.969Z,0.70
2022-09-06T20:09:42.498Z,0.80
2022-09-06T20:16:31.742Z,0.80
2022-09-06T20:19:23.379Z,0.70
2022-09-06T20:22:23.166Z,0.80
2022-09-06T20:25:49.260Z,1.20
2022-09-06T20:28:58.599Z,1.00
2022-09-06T20:32:16.055Z,1.00
2022-09-06T20:34:53.705Z,0.80
2022-09-06T20:38:03.265Z,0.90
2022-09-06T20:41:34.114Z,1.00
2022-09-06T20:45:16.011Z,0.80
2022-09-06T20:48:35.429Z,1.00
2022-09-06T20:51:56.195Z,1.10
2022-09-06T20:54:44.611Z,0.90
2022-09-06T20:57:19.475Z,1.00
2022-09-06T21:00:19.989Z,0.90
2022-09-06T21:03:17.669Z,0.90
2022-09-06T21:06:30.265Z,0.90
2022-09-06T21:09:45.870Z,0.90
2022-09-06T21:13:06.985Z,1.10
2022-09-06T21:16:14.060Z,1.10
2022-09-06T21:19:29.000Z,0.90
2022-09-06T21:22:40.760Z,1.90
2022-09-06T21:26:14.885Z,1.10
2022-09-06T21:29:13.021Z,2.20
2022-09-06T21:32:53.599Z,1.90
2022-09-06T21:36:00.692Z,1.70
2022-09-06T21:38:39.404Z,1.30
2022-09-06T21:42:09.736Z,1.90
2022-09-06T21:45:38.746Z,1.90
2022-09-06T21:48:43.985Z,1.90
2022-09-06T21:51:48.200Z,2.30
2022-09-06T21:54:47.493Z,1.90
2022-09-06T21:57:32.849Z,1.50
2022-09-06T22:00:53.769Z,1.10
2022-09-06T22:04:20.643Z,1.20
2022-09-06T22:07:49.994Z,1.50
2022-09-06T22:10:48.025Z,1.20
2022-09-06T22:17:24.623Z,1.40
2022-09-06T22:20:34.008Z,1.10
2022-09-06T22:23:43.401Z,1.60
2022-09-06T22:42:16.600Z,1.60
2022-09-06T22:45:49.920Z,1.70
2022-09-06T23:00:36.783Z,1.40
2022-09-06T23:03:51.700Z,1.20
2022-09-06T23:06:42.934Z,1.30
2022-09-06T23:09:34.832Z,1.30
2022-09-06T23:12:22.739Z,1.30
2022-09-06T23:15:48.524Z,1.10
2022-09-06T23:18:37.281Z,1.70
2022-09-06T23:24:04.034Z,1.50
2022-09-06T23:27:21.921Z,1.20
2022-09-06T23:30:11.701Z,1.30
2022-09-06T23:32:51.043Z,1.60
2022-09-06T23:35:44.297Z,1.90
2022-09-06T23:38:28.474Z,1.50
2022-09-06T23:41:03.384Z,1.30
2022-09-06T23:43:46.603Z,1.50
2022-09-06T23:46:30.223Z,1.40
2022-09-06T23:49:03.127Z,1.50
2022-09-06T23:55:23.952Z,1.20
2022-09-06T23:58:13.428Z,1.50
